Time;durP1;ratioP1;P1;durP2;ratioP2;P2;SDS_P1;SDS_P2;PMS_P1;PMS_P2;Temp;Humidity;BMP_temperature;BMP_pressure;BME280_temperature;BME280_humidity;BME280_pressure;Samples;Min_cycle;Max_cycle;Signal;HPM_P1;HPM_P2
2024/02/12 00:00:45;;;;;;;22.58;11.20;;;;;;;;;;2071448;28;20030;-74
2024/02/12 00:02:05;;;;;;;17.13;9.65;;;;;;;;;;2070475;28;20018;-73
2024/02/12 00:03:24;;;;;;;16.85;10.25;;;;;;;;;;2072414;28;20420;-75
2024/02/12 00:04:43;;;;;;;16.77;10.88;;;;;;;;;;2072041;28;20021;-73
2024/02/12 00:06:02;;;;;;;17.60;9.80;;;;;;;;;;2074573;28;20026;-74
2024/02/12 00:07:21;;;;;;;24.30;11.73;;;;;;;;;;2072697;28;20018;-74
2024/02/12 00:08:43;;;;;;;17.48;9.45;;;;;;;;;;2075675;28;20065;-74
2024/02/12 00:10:10;;;;;;;19.83;11.13;;;;;;;;;;2074659;28;20025;-74
2024/02/12 00:11:30;;;;;;;18.80;10.63;;;;;;;;;;2062572;28;20025;-74
2024/02/12 00:12:52;;;;;;;20.67;9.82;;;;;;;;;;2071932;28;20428;-74
2024/02/12 00:14:10;;;;;;;17.27;9.60;;;;;;;;;;2074761;28;20033;-74
2024/02/12 00:15:29;;;;;;;13.98;9.70;;;;;;;;;;2074808;28;20030;-74
2024/02/12 00:16:48;;;;;;;17.23;9.77;;;;;;;;;;2073723;28;20105;-74
2024/02/12 00:18:07;;;;;;;16.67;10.32;;;;;;;;;;2075172;28;20108;-74
2024/02/12 00:19:26;;;;;;;17.80;10.00;;;;;;;;;;2075735;28;20033;-74
2024/02/12 00:20:45;;;;;;;16.60;10.25;;;;;;;;;;2075953;28;20030;-74
2024/02/12 00:22:05;;;;;;;17.02;10.85;;;;;;;;;;2073444;28;20033;-74
2024/02/12 00:23:24;;;;;;;16.33;10.02;;;;;;;;;;2073198;28;20034;-75
2024/02/12 00:24:43;;;;;;;21.38;9.95;;;;;;;;;;2074214;28;20030;-75
2024/02/12 00:26:02;;;;;;;15.77;9.90;;;;;;;;;;2072510;28;20030;-74
2024/02/12 00:27:21;;;;;;;14.80;9.55;;;;;;;;;;2074069;28;20030;-74
2024/02/12 00:28:41;;;;;;;21.88;10.40;;;;;;;;;;2075190;28;20026;-75
2024/02/12 00:30:00;;;;;;;17.23;9.85;;;;;;;;;;2074379;28;20038;-75
2024/02/12 00:31:20;;;;;;;17.13;9.88;;;;;;;;;;2073582;28;20420;-75
2024/02/12 00:32:39;;;;;;;16.02;9.50;;;;;;;;;;2073643;28;20038;-75
2024/02/12 00:33:58;;;;;;;15.55;9.88;;;;;;;;;;2075577;28;20033;-74
2024/02/12 00:35:17;;;;;;;16.77;9.23;;;;;;;;;;2075501;28;20034;-75
2024/02/12 00:36:37;;;;;;;13.95;9.88;;;;;;;;;;2075400;28;20389;-75
2024/02/12 00:37:56;;;;;;;18.40;9.85;;;;;;;;;;2074496;28;20517;-75
2024/02/12 00:39:15;;;;;;;16.27;9.82;;;;;;;;;;2075256;28;20034;-75
2024/02/12 00:40:34;;;;;;;18.48;10.10;;;;;;;;;;2074843;28;20033;-75
2024/02/12 00:41:53;;;;;;;15.77;9.68;;;;;;;;;;2074405;28;20077;-75
2024/02/12 00:43:12;;;;;;;16.33;9.73;;;;;;;;;;2074173;28;20392;-75
2024/02/12 00:44:33;;;;;;;15.05;9.60;;;;;;;;;;2075926;28;20029;-75
2024/02/12 00:45:52;;;;;;;20.63;9.43;;;;;;;;;;2066240;28;20022;-75
2024/02/12 00:47:11;;;;;;;18.85;10.48;;;;;;;;;;2071042;28;20025;-75
2024/02/12 00:48:31;;;;;;;18.85;10.00;;;;;;;;;;2065133;28;20030;-75
2024/02/12 00:49:50;;;;;;;17.35;9.65;;;;;;;;;;2061505;28;20121;-75
2024/02/12 00:51:12;;;;;;;17.38;10.10;;;;;;;;;;2071410;28;20033;-75
2024/02/12 00:52:33;;;;;;;16.42;10.05;;;;;;;;;;2076070;28;20500;-75
2024/02/12 00:53:53;;;;;;;16.30;10.38;;;;;;;;;;2075652;28;20041;-75
2024/02/12 00:55:13;;;;;;;18.50;9.57;;;;;;;;;;2066477;28;20041;-75
2024/02/12 00:56:33;;;;;;;16.95;9.30;;;;;;;;;;2064854;28;20477;-75
2024/02/12 00:57:52;;;;;;;17.63;9.98;;;;;;;;;;2069872;28;20404;-75
2024/02/12 00:59:17;;;;;;;22.95;10.20;;;;;;;;;;2075144;28;20030;-75
2024/02/12 01:00:36;;;;;;;16.00;10.35;;;;;;;;;;2069086;28;20113;-75
2024/02/12 01:01:56;;;;;;;21.23;10.10;;;;;;;;;;2072983;28;20025;-75
2024/02/12 01:03:14;;;;;;;16.17;10.38;;;;;;;;;;2077852;28;20026;-74
2024/02/12 01:04:34;;;;;;;16.83;10.25;;;;;;;;;;2077442;28;20026;-75
2024/02/12 01:05:53;;;;;;;17.90;9.82;;;;;;;;;;2067858;28;20455;-75
2024/02/12 01:07:12;;;;;;;19.90;10.82;;;;;;;;;;2066800;28;20031;-75
2024/02/12 01:08:31;;;;;;;23.42;12.25;;;;;;;;;;2064926;28;20042;-75
2024/02/12 01:09:51;;;;;;;20.70;11.50;;;;;;;;;;2073342;28;20104;-76
2024/02/12 01:11:10;;;;;;;26.67;11.77;;;;;;;;;;2067175;28;20039;-75
2024/02/12 01:12:30;;;;;;;23.40;11.05;;;;;;;;;;2073431;28;20444;-75
2024/02/12 01:13:49;;;;;;;27.23;11.52;;;;;;;;;;2076885;28;20495;-75
2024/02/12 01:15:09;;;;;;;24.55;11.10;;;;;;;;;;2075413;28;20389;-75
2024/02/12 01:16:31;;;;;;;22.27;11.55;;;;;;;;;;2076703;28;20029;-75
2024/02/12 01:17:50;;;;;;;20.98;10.93;;;;;;;;;;2070217;28;20037;-75
2024/02/12 01:19:09;;;;;;;26.60;10.70;;;;;;;;;;2074433;28;20428;-75
2024/02/12 01:20:28;;;;;;;23.27;11.02;;;;;;;;;;2076432;28;20037;-75
2024/02/12 01:21:47;;;;;;;21.30;11.13;;;;;;;;;;2075784;28;20034;-75
2024/02/12 01:23:06;;;;;;;24.33;10.98;;;;;;;;;;2076553;28;20022;-75
2024/02/12 01:24:25;;;;;;;28.50;11.68;;;;;;;;;;2077473;28;20021;-75
2024/02/12 01:25:45;;;;;;;23.75;11.77;;;;;;;;;;2077072;28;20033;-75
2024/02/12 01:27:04;;;;;;;23.80;11.35;;;;;;;;;;2074968;28;20566;-75
2024/02/12 01:28:23;;;;;;;24.48;12.38;;;;;;;;;;2074171;28;20046;-75
2024/02/12 01:29:43;;;;;;;24.73;11.57;;;;;;;;;;2076512;28;20026;-75
2024/02/12 01:31:03;;;;;;;22.77;11.25;;;;;;;;;;2077098;28;20444;-75
2024/02/12 01:32:22;;;;;;;24.85;12.38;;;;;;;;;;2077298;28;20026;-75
2024/02/12 01:33:42;;;;;;;21.38;11.75;;;;;;;;;;2075719;28;20030;-75
2024/02/12 01:35:01;;;;;;;19.45;10.75;;;;;;;;;;2076902;28;20500;-75
2024/02/12 01:36:23;;;;;;;26.27;11.80;;;;;;;;;;2076633;28;20968;-75
2024/02/12 01:37:43;;;;;;;24.20;11.68;;;;;;;;;;2077612;28;20029;-76
2024/02/12 01:39:02;;;;;;;21.65;11.45;;;;;;;;;;2078752;28;20396;-75
2024/02/12 01:40:21;;;;;;;29.02;12.82;;;;;;;;;;2077437;28;20026;-75
2024/02/12 01:41:42;;;;;;;24.45;10.95;;;;;;;;;;2073067;28;20392;-75
2024/02/12 01:43:02;;;;;;;18.30;10.90;;;;;;;;;;2076673;28;20022;-75
2024/02/12 01:44:21;;;;;;;23.48;11.18;;;;;;;;;;2077184;28;20029;-75
2024/02/12 01:45:40;;;;;;;23.15;11.15;;;;;;;;;;2076932;28;20033;-75
2024/02/12 01:46:59;;;;;;;22.30;11.20;;;;;;;;;;2068511;28;20105;-76
2024/02/12 01:48:18;;;;;;;20.73;11.00;;;;;;;;;;2065048;28;20045;-75
2024/02/12 01:49:38;;;;;;;23.10;11.32;;;;;;;;;;2073745;28;20396;-75
2024/02/12 01:50:59;;;;;;;21.38;11.23;;;;;;;;;;2077901;28;20069;-75
2024/02/12 01:52:19;;;;;;;24.27;11.73;;;;;;;;;;2068527;28;20493;-75
2024/02/12 01:53:39;;;;;;;26.08;10.93;;;;;;;;;;2072911;28;20591;-75
2024/02/12 01:55:02;;;;;;;22.08;11.50;;;;;;;;;;2075418;28;20120;-75
2024/02/12 01:56:21;;;;;;;23.33;11.63;;;;;;;;;;2069504;28;20521;-75
2024/02/12 01:57:40;;;;;;;20.70;10.65;;;;;;;;;;2065359;28;20125;-76
2024/02/12 01:59:02;;;;;;;24.35;11.80;;;;;;;;;;2074250;28;20076;-75
2024/02/12 02:00:26;;;;;;;24.38;11.25;;;;;;;;;;2077988;28;20559;-75
2024/02/12 02:01:47;;;;;;;23.77;12.05;;;;;;;;;;2076810;28;20037;-75
2024/02/12 02:03:06;;;;;;;25.00;11.77;;;;;;;;;;2075068;28;20100;-75
2024/02/12 02:04:26;;;;;;;27.73;12.82;;;;;;;;;;2077126;28;20022;-75
2024/02/12 02:05:45;;;;;;;26.38;11.30;;;;;;;;;;2077802;28;20489;-75
2024/02/12 02:07:06;;;;;;;26.45;12.48;;;;;;;;;;2075343;28;20037;-75
2024/02/12 02:08:34;;;;;;;29.15;13.10;;;;;;;;;;2076041;28;20030;-75
2024/02/12 02:09:53;;;;;;;22.83;12.00;;;;;;;;;;2072639;28;20450;-75
2024/02/12 02:11:12;;;;;;;23.63;12.43;;;;;;;;;;2068839;28;20049;-75
2024/02/12 02:12:31;;;;;;;23.52;11.90;;;;;;;;;;2071593;28;20042;-75
2024/02/12 02:13:52;;;;;;;23.45;12.13;;;;;;;;;;2074553;28;20397;-75
2024/02/12 02:15:12;;;;;;;24.55;12.93;;;;;;;;;;2075474;28;20508;-75
2024/02/12 02:16:35;;;;;;;25.05;11.82;;;;;;;;;;2076292;28;20033;-75
2024/02/12 02:17:55;;;;;;;29.52;12.90;;;;;;;;;;2076517;28;20555;-75
2024/02/12 02:19:13;;;;;;;26.85;12.38;;;;;;;;;;2075554;28;20105;-75
2024/02/12 02:20:34;;;;;;;22.90;13.35;;;;;;;;;;2073746;28;20062;-75
2024/02/12 02:21:53;;;;;;;23.42;11.82;;;;;;;;;;2074600;28;20026;-75
2024/02/12 02:23:12;;;;;;;24.60;12.05;;;;;;;;;;2076142;28;20473;-75
2024/02/12 02:24:31;;;;;;;22.33;11.93;;;;;;;;;;2076517;28;20029;-75
2024/02/12 02:25:50;;;;;;;23.50;12.10;;;;;;;;;;2074313;28;20025;-75
2024/02/12 02:27:09;;;;;;;26.52;12.23;;;;;;;;;;2075392;28;20026;-75
2024/02/12 02:28:29;;;;;;;28.83;13.20;;;;;;;;;;2075278;28;20034;-75
2024/02/12 02:29:49;;;;;;;23.40;11.48;;;;;;;;;;2076916;28;20029;-75
2024/02/12 02:31:08;;;;;;;24.05;12.93;;;;;;;;;;2075830;28;20492;-75
2024/02/12 02:32:28;;;;;;;29.10;13.25;;;;;;;;;;2066096;28;20041;-78
2024/02/12 02:33:47;;;;;;;26.42;12.27;;;;;;;;;;2072633;28;20030;-78
2024/02/12 02:35:07;;;;;;;26.63;12.77;;;;;;;;;;2075575;28;20326;-78
2024/02/12 02:36:27;;;;;;;25.63;12.25;;;;;;;;;;2076440;28;20030;-77
2024/02/12 02:37:46;;;;;;;27.85;12.27;;;;;;;;;;2075625;28;20108;-78
2024/02/12 02:39:06;;;;;;;29.20;13.30;;;;;;;;;;2075139;28;20034;-78
2024/02/12 02:40:25;;;;;;;24.90;12.27;;;;;;;;;;2075806;28;20022;-77
2024/02/12 02:41:45;;;;;;;27.48;11.23;;;;;;;;;;2075522;28;20026;-77
2024/02/12 02:43:05;;;;;;;26.00;12.77;;;;;;;;;;2076684;28;20116;-77
2024/02/12 02:44:24;;;;;;;26.15;11.73;;;;;;;;;;2074421;28;20396;-77
2024/02/12 02:45:43;;;;;;;25.48;13.02;;;;;;;;;;2073453;28;20038;-77
2024/02/12 02:47:02;;;;;;;24.50;12.00;;;;;;;;;;2064297;28;20512;-75
2024/02/12 02:48:21;;;;;;;24.50;12.35;;;;;;;;;;2072055;28;20029;-77
2024/02/12 02:49:41;;;;;;;22.77;11.93;;;;;;;;;;2074835;28;20137;-77
2024/02/12 02:51:01;;;;;;;29.33;12.23;;;;;;;;;;2076641;28;20086;-77
2024/02/12 02:52:20;;;;;;;21.75;12.02;;;;;;;;;;2075336;28;20073;-77
2024/02/12 02:53:39;;;;;;;21.60;11.02;;;;;;;;;;2075737;28;20049;-76
2024/02/12 02:54:58;;;;;;;27.33;11.20;;;;;;;;;;2075368;28;20022;-76
2024/02/12 02:56:17;;;;;;;23.70;11.23;;;;;;;;;;2075681;28;20046;-77
2024/02/12 02:57:37;;;;;;;21.10;11.95;;;;;;;;;;2064935;28;20042;-77
2024/02/12 02:58:56;;;;;;;26.58;12.05;;;;;;;;;;2066425;28;20042;-78
2024/02/12 03:00:16;;;;;;;25.10;11.80;;;;;;;;;;2070714;28;20025;-77
2024/02/12 03:01:34;;;;;;;19.25;10.95;;;;;;;;;;2063242;28;20027;-77
2024/02/12 03:02:53;;;;;;;22.35;11.13;;;;;;;;;;2071023;28;20029;-76
2024/02/12 03:04:15;;;;;;;21.17;11.38;;;;;;;;;;2074180;28;20030;-77
2024/02/12 03:05:34;;;;;;;22.52;10.77;;;;;;;;;;2072787;28;20034;-77
2024/02/12 03:06:53;;;;;;;19.98;10.77;;;;;;;;;;2075365;28;20440;-76
2024/02/12 03:08:12;;;;;;;21.42;11.52;;;;;;;;;;2073265;28;20030;-76
2024/02/12 03:09:31;;;;;;;21.25;10.75;;;;;;;;;;2076391;28;20026;-77
2024/02/12 03:10:53;;;;;;;20.90;9.55;;;;;;;;;;2074707;28;20269;-77
2024/02/12 03:12:13;;;;;;;18.67;10.25;;;;;;;;;;2076338;28;20034;-77
2024/02/12 03:13:32;;;;;;;18.75;10.88;;;;;;;;;;2076415;28;20034;-77
2024/02/12 03:14:51;;;;;;;22.10;10.20;;;;;;;;;;2075260;28;20423;-77
2024/02/12 03:16:14;;;;;;;21.05;11.18;;;;;;;;;;2074714;28;20493;-76
2024/02/12 03:17:33;;;;;;;22.75;11.13;;;;;;;;;;2075750;28;20037;-77
2024/02/12 03:18:52;;;;;;;20.55;10.75;;;;;;;;;;2073458;28;20472;-77
2024/02/12 03:20:12;;;;;;;20.27;10.40;;;;;;;;;;2067723;28;20022;-77
2024/02/12 03:21:31;;;;;;;20.63;10.95;;;;;;;;;;2073788;28;20033;-77
2024/02/12 03:22:50;;;;;;;20.27;10.65;;;;;;;;;;2075632;28;20483;-78
2024/02/12 03:24:09;;;;;;;21.80;11.02;;;;;;;;;;2076230;28;20025;-77
2024/02/12 03:25:28;;;;;;;24.17;11.20;;;;;;;;;;2067143;28;20770;-77
2024/02/12 03:26:51;;;;;;;23.92;10.40;;;;;;;;;;2064309;28;20022;-77
2024/02/12 03:28:10;;;;;;;;;;;;;;;;;;2074174;28;20108;-78
2024/02/12 03:29:31;;;;;;;19.60;9.82;;;;;;;;;;2076060;28;20287;-77
2024/02/12 03:30:50;;;;;;;21.95;10.70;;;;;;;;;;2067516;28;20522;-77
2024/02/12 03:32:09;;;;;;;21.58;11.15;;;;;;;;;;2072532;28;20026;-78
2024/02/12 03:33:28;;;;;;;18.45;9.70;;;;;;;;;;2075548;28;20037;-77
2024/02/12 03:34:47;;;;;;;22.63;11.23;;;;;;;;;;2073892;28;20063;-77
2024/02/12 03:36:06;;;;;;;19.45;9.55;;;;;;;;;;2067935;28;20494;-77
2024/02/12 03:37:26;;;;;;;23.52;10.68;;;;;;;;;;2073694;28;20029;-77
2024/02/12 03:38:45;;;;;;;15.68;8.82;;;;;;;;;;2075834;28;20104;-77
2024/02/12 03:40:09;;;;;;;23.58;10.35;;;;;;;;;;2066281;28;20030;-77
2024/02/12 03:41:28;;;;;;;16.08;9.70;;;;;;;;;;2073280;28;20026;-76
2024/02/12 03:42:49;;;;;;;17.05;9.15;;;;;;;;;;2074236;28;20021;-74
2024/02/12 03:44:09;;;;;;;18.02;9.55;;;;;;;;;;2075862;28;20018;-75
2024/02/12 03:45:29;;;;;;;18.85;9.32;;;;;;;;;;2072734;28;20053;-75
2024/02/12 03:46:48;;;;;;;21.63;10.45;;;;;;;;;;2075534;28;20034;-75
2024/02/12 03:59:50;;;;;;;19.45;9.38;;;;;;;;;;2071542;28;20065;-75
2024/02/12 03:59:53;;;;;;;13.70;8.32;;;;;;;;;;2072755;28;20501;-75
2024/02/12 04:01:13;;;;;;;14.63;8.95;;;;;;;;;;2073360;28;20025;-75
2024/02/12 04:02:32;;;;;;;13.65;8.55;;;;;;;;;;2074362;28;20499;-75
2024/02/12 04:03:52;;;;;;;19.58;8.80;;;;;;;;;;2076098;28;20034;-75
2024/02/12 04:05:11;;;;;;;15.25;8.57;;;;;;;;;;2075859;28;20038;-75
2024/02/12 04:06:34;;;;;;;13.90;8.15;;;;;;;;;;2074470;28;20021;-75
2024/02/12 04:07:53;;;;;;;12.48;7.47;;;;;;;;;;2075131;28;20041;-76
2024/02/12 04:09:12;;;;;;;12.70;8.02;;;;;;;;;;2066472;28;20038;-75
2024/02/12 04:10:32;;;;;;;15.52;8.50;;;;;;;;;;2071509;28;20026;-75
2024/02/12 04:11:51;;;;;;;12.88;8.00;;;;;;;;;;2074999;28;20026;-75
2024/02/12 04:13:10;;;;;;;18.85;8.48;;;;;;;;;;2060047;28;20030;-75
2024/02/12 04:14:29;;;;;;;13.57;7.82;;;;;;;;;;2068943;28;20057;-75
2024/02/12 04:15:49;;;;;;;14.82;7.90;;;;;;;;;;2074700;28;20025;-75
2024/02/12 04:17:14;;;;;;;12.50;8.07;;;;;;;;;;2075023;28;20120;-75
2024/02/12 04:18:34;;;;;;;13.95;8.05;;;;;;;;;;2073138;28;20108;-75
2024/02/12 04:19:54;;;;;;;13.15;7.97;;;;;;;;;;2076254;28;20579;-74
2024/02/12 04:21:16;;;;;;;15.43;7.90;;;;;;;;;;2075739;28;20477;-75
2024/02/12 04:22:35;;;;;;;14.75;8.27;;;;;;;;;;2075383;28;20029;-75
2024/02/12 04:23:54;;;;;;;13.57;7.45;;;;;;;;;;2065869;28;20477;-75
2024/02/12 04:25:13;;;;;;;14.52;8.30;;;;;;;;;;2071730;28;20026;-75
2024/02/12 04:26:37;;;;;;;15.52;8.27;;;;;;;;;;2075643;28;20029;-75
2024/02/12 04:28:00;;;;;;;14.80;8.68;;;;;;;;;;2075011;28;20450;-75
2024/02/12 04:29:19;;;;;;;15.60;7.85;;;;;;;;;;2074701;28;20034;-76
2024/02/12 04:30:39;;;;;;;10.05;7.90;;;;;;;;;;2071977;28;20030;-75
2024/02/12 04:31:58;;;;;;;15.65;7.68;;;;;;;;;;2075508;28;20034;-76
2024/02/12 04:33:17;;;;;;;12.68;7.65;;;;;;;;;;2074915;28;20025;-76
2024/02/12 04:34:36;;;;;;;15.45;8.27;;;;;;;;;;2076088;28;20455;-76
2024/02/12 04:35:55;;;;;;;12.38;7.90;;;;;;;;;;2074830;28;20021;-75
2024/02/12 04:37:14;;;;;;;15.88;8.45;;;;;;;;;;2074928;28;20033;-75
2024/02/12 04:38:34;;;;;;;13.60;7.97;;;;;;;;;;2075363;28;20447;-75
2024/02/12 04:39:53;;;;;;;13.20;7.82;;;;;;;;;;2074325;28;20025;-75
2024/02/12 04:41:13;;;;;;;16.70;9.13;;;;;;;;;;2065886;28;20054;-75
2024/02/12 04:42:32;;;;;;;17.25;8.68;;;;;;;;;;2063498;28;20489;-75
2024/02/12 04:43:51;;;;;;;15.15;8.30;;;;;;;;;;2071578;28;20030;-75
2024/02/12 04:45:11;;;;;;;14.95;8.95;;;;;;;;;;2073731;28;20029;-75
2024/02/12 04:46:30;;;;;;;14.70;8.10;;;;;;;;;;2059917;28;20015;-75
2024/02/12 04:47:52;;;;;;;11.80;7.78;;;;;;;;;;2067765;28;20038;-75
2024/02/12 04:49:11;;;;;;;18.38;8.65;;;;;;;;;;2073579;28;21387;-75
2024/02/12 04:50:30;;;;;;;14.13;8.00;;;;;;;;;;2059999;28;20735;-75
2024/02/12 04:51:49;;;;;;;17.00;7.63;;;;;;;;;;2070189;28;20029;-74
2024/02/12 04:53:08;;;;;;;13.02;8.13;;;;;;;;;;2074591;28;20029;-75
2024/02/12 04:54:27;;;;;;;15.10;8.60;;;;;;;;;;2075091;28;20489;-75
2024/02/12 04:55:45;;;;;;;16.40;8.50;;;;;;;;;;2075725;28;20501;-75
2024/02/12 04:57:04;;;;;;;15.10;8.43;;;;;;;;;;2062814;28;20046;-75
2024/02/12 04:58:24;;;;;;;14.02;8.73;;;;;;;;;;2064796;28;20393;-75
2024/02/12 04:59:42;;;;;;;14.27;7.97;;;;;;;;;;2064073;28;20030;-76
2024/02/12 05:01:01;;;;;;;17.15;8.68;;;;;;;;;;2070413;28;20496;-75
2024/02/12 05:02:21;;;;;;;14.48;8.10;;;;;;;;;;2072885;28;20113;-75
2024/02/12 05:03:40;;;;;;;13.85;8.60;;;;;;;;;;2074791;28;20034;-75
2024/02/12 05:05:00;;;;;;;12.38;7.93;;;;;;;;;;2063866;28;20034;-74
2024/02/12 05:06:19;;;;;;;16.13;9.13;;;;;;;;;;2071747;28;20026;-75
2024/02/12 05:07:38;;;;;;;14.68;8.43;;;;;;;;;;2073918;28;20122;-75
2024/02/12 05:08:57;;;;;;;15.85;8.55;;;;;;;;;;2075068;28;20034;-75
2024/02/12 05:10:16;;;;;;;17.10;8.93;;;;;;;;;;2076392;28;20014;-75
2024/02/12 05:11:35;;;;;;;17.90;7.50;;;;;;;;;;2075207;28;20026;-74
2024/02/12 05:12:54;;;;;;;16.20;8.48;;;;;;;;;;2074572;28;20030;-74
2024/02/12 05:14:13;;;;;;;17.00;8.57;;;;;;;;;;2075875;28;20037;-74
2024/02/12 05:15:34;;;;;;;13.98;8.70;;;;;;;;;;2074878;28;20030;-74
2024/02/12 05:16:59;;;;;;;13.85;8.45;;;;;;;;;;2065010;28;20108;-73
2024/02/12 05:23:12;;;;;;;14.07;8.32;;;;;;;;;;2072313;28;20034;-74
2024/02/12 05:24:32;;;;;;;14.43;8.57;;;;;;;;;;2073353;28;20026;-76
2024/02/12 05:25:51;;;;;;;15.82;8.50;;;;;;;;;;2074539;28;20034;-76
2024/02/12 05:27:10;;;;;;;15.43;8.20;;;;;;;;;;2073470;28;20018;-76
2024/02/12 05:28:29;;;;;;;14.55;9.05;;;;;;;;;;2073961;28;20018;-75
2024/02/12 05:29:48;;;;;;;13.05;7.53;;;;;;;;;;2065383;28;20034;-75
2024/02/12 05:31:08;;;;;;;11.70;8.05;;;;;;;;;;2070221;28;20038;-76
2024/02/12 05:32:28;;;;;;;15.65;8.30;;;;;;;;;;2074886;28;20034;-76
2024/02/12 05:33:48;;;;;;;13.65;8.07;;;;;;;;;;2076298;28;20034;-75
2024/02/12 05:35:09;;;;;;;18.27;9.10;;;;;;;;;;2074766;28;20030;-76
2024/02/12 05:36:28;;;;;;;15.20;8.77;;;;;;;;;;2073412;28;20038;-75
2024/02/12 05:37:47;;;;;;;15.38;8.70;;;;;;;;;;2074473;28;20559;-76
2024/02/12 05:39:09;;;;;;;14.73;7.85;;;;;;;;;;2066472;28;20030;-78
2024/02/12 05:40:28;;;;;;;13.52;8.20;;;;;;;;;;2071763;28;20030;-77
2024/02/12 05:41:48;;;;;;;18.95;9.07;;;;;;;;;;2057859;28;20034;-76
2024/02/12 05:43:06;;;;;;;16.88;8.90;;;;;;;;;;2059154;28;20059;-76
2024/02/12 05:44:26;;;;;;;16.17;8.27;;;;;;;;;;2069784;28;20022;-78
2024/02/12 05:45:44;;;;;;;20.30;9.35;;;;;;;;;;2073173;28;20064;-77
2024/02/12 05:47:05;;;;;;;15.55;8.15;;;;;;;;;;2073643;28;20738;-80
2024/02/12 05:48:26;;;;;;;17.75;8.95;;;;;;;;;;2066226;28;20038;-78
2024/02/12 05:49:46;;;;;;;12.68;8.13;;;;;;;;;;2071056;28;20501;-78
2024/02/12 05:51:08;;;;;;;13.52;8.55;;;;;;;;;;2074886;28;20029;-78
2024/02/12 05:52:27;;;;;;;16.65;8.00;;;;;;;;;;2072152;28;20057;-78
2024/02/12 05:53:47;;;;;;;12.38;9.13;;;;;;;;;;2067709;28;20479;-78
2024/02/12 05:55:06;;;;;;;13.57;8.30;;;;;;;;;;2066734;28;20509;-78
2024/02/12 05:56:25;;;;;;;18.20;8.43;;;;;;;;;;2063405;28;20034;-78
2024/02/12 05:57:43;;;;;;;14.48;8.02;;;;;;;;;;2069268;28;20029;-79
2024/02/12 05:59:02;;;;;;;14.27;8.45;;;;;;;;;;2073559;28;20026;-77
2024/02/12 06:00:22;;;;;;;16.80;8.70;;;;;;;;;;2068325;28;20452;-77
2024/02/12 06:01:42;;;;;;;16.55;8.82;;;;;;;;;;2071584;28;20022;-79
2024/02/12 06:03:01;;;;;;;17.70;9.15;;;;;;;;;;2074485;28;20033;-78
2024/02/12 06:04:20;;;;;;;15.23;8.45;;;;;;;;;;2068815;28;20029;-78
2024/02/12 06:05:39;;;;;;;17.02;8.77;;;;;;;;;;2067820;28;20042;-77
2024/02/12 06:06:59;;;;;;;22.40;9.18;;;;;;;;;;2073797;28;20034;-78
2024/02/12 06:08:17;;;;;;;13.35;7.85;;;;;;;;;;2063971;28;20034;-79
2024/02/12 06:09:36;;;;;;;14.55;9.02;;;;;;;;;;2072696;28;20026;-77
2024/02/12 06:10:55;;;;;;;18.23;9.88;;;;;;;;;;2064773;28;20053;-78
2024/02/12 06:12:14;;;;;;;17.25;9.32;;;;;;;;;;2070701;28;20038;-78
2024/02/12 06:13:33;;;;;;;16.38;9.18;;;;;;;;;;2066437;28;20026;-77
2024/02/12 06:14:54;;;;;;;15.38;8.90;;;;;;;;;;2072184;28;20133;-77
2024/02/12 06:16:13;;;;;;;17.98;9.45;;;;;;;;;;2059305;28;20026;-74
2024/02/12 06:17:33;;;;;;;17.15;10.32;;;;;;;;;;2067278;28;20404;-78
2024/02/12 06:18:52;;;;;;;18.90;9.77;;;;;;;;;;2074441;28;20034;-78
2024/02/12 06:20:12;;;;;;;21.60;9.98;;;;;;;;;;2073663;28;20092;-78
2024/02/12 06:21:31;;;;;;;16.30;9.45;;;;;;;;;;2074322;28;20026;-76
2024/02/12 06:22:50;;;;;;;20.70;9.88;;;;;;;;;;2075648;28;20029;-76
2024/02/12 06:24:09;;;;;;;19.05;9.30;;;;;;;;;;2063661;28;20026;-78
2024/02/12 06:25:28;;;;;;;15.25;9.95;;;;;;;;;;2064915;28;20038;-77
2024/02/12 06:26:46;;;;;;;17.73;8.40;;;;;;;;;;2071562;28;20026;-80
2024/02/12 06:28:05;;;;;;;18.05;9.35;;;;;;;;;;2074178;28;20384;-79
2024/02/12 06:29:25;;;;;;;19.45;10.18;;;;;;;;;;2073046;28;20485;-78
2024/02/12 06:30:44;;;;;;;16.05;9.07;;;;;;;;;;2072231;28;20030;-79
2024/02/12 06:32:03;;;;;;;18.05;10.63;;;;;;;;;;2076193;28;20045;-79
2024/02/12 06:33:22;;;;;;;20.38;10.20;;;;;;;;;;2071043;28;20053;-79
2024/02/12 06:34:44;;;;;;;17.38;10.05;;;;;;;;;;2065529;28;20030;-79
2024/02/12 06:36:04;;;;;;;18.00;10.50;;;;;;;;;;2069204;28;20034;-80
2024/02/12 06:37:23;;;;;;;20.77;9.88;;;;;;;;;;2065903;28;20121;-79
2024/02/12 06:38:42;;;;;;;18.30;9.73;;;;;;;;;;2070524;28;20037;-79
2024/02/12 06:40:02;;;;;;;15.45;8.80;;;;;;;;;;2065235;28;20027;-78
2024/02/12 06:41:21;;;;;;;17.35;10.00;;;;;;;;;;2062959;28;20031;-78
2024/02/12 06:42:42;;;;;;;17.85;10.30;;;;;;;;;;2072376;28;20025;-78
2024/02/12 06:44:01;;;;;;;18.60;9.30;;;;;;;;;;2072882;28;20034;-78
2024/02/12 06:45:20;;;;;;;17.50;10.13;;;;;;;;;;2072611;28;20108;-79
2024/02/12 06:46:43;;;;;;;17.70;10.40;;;;;;;;;;2065580;28;20022;-78
2024/02/12 06:48:03;;;;;;;18.52;10.23;;;;;;;;;;2061874;28;20057;-78
2024/02/12 06:49:24;;;;;;;21.65;9.65;;;;;;;;;;2070309;28;20038;-77
2024/02/12 06:50:44;;;;;;;20.20;10.73;;;;;;;;;;2074314;28;20025;-79
2024/02/12 06:52:04;;;;;;;19.92;9.50;;;;;;;;;;2075888;28;20029;-74
2024/02/12 06:53:23;;;;;;;16.85;9.45;;;;;;;;;;2076022;28;20068;-75
2024/02/12 06:54:46;;;;;;;20.80;10.93;;;;;;;;;;2074480;28;20038;-74
2024/02/12 06:56:05;;;;;;;20.95;9.73;;;;;;;;;;2071844;28;20513;-74
2024/02/12 06:57:24;;;;;;;22.50;10.18;;;;;;;;;;2072286;28;20481;-76
2024/02/12 06:58:43;;;;;;;20.15;10.68;;;;;;;;;;2074175;28;20124;-79
2024/02/12 07:00:03;;;;;;;19.20;10.02;;;;;;;;;;2065999;28;20034;-79
2024/02/12 07:01:23;;;;;;;22.35;10.50;;;;;;;;;;2066182;28;20026;-78
2024/02/12 07:02:42;;;;;;;20.10;10.38;;;;;;;;;;2060300;28;20153;-79
2024/02/12 07:04:02;;;;;;;24.75;11.35;;;;;;;;;;2067829;28;20026;-79
2024/02/12 07:05:21;;;;;;;17.70;9.80;;;;;;;;;;2073106;28;20053;-78
2024/02/12 07:06:40;;;;;;;20.50;10.25;;;;;;;;;;2075059;28;20029;-78
2024/02/12 07:07:59;;;;;;;19.73;10.52;;;;;;;;;;2072166;28;20033;-76
2024/02/12 07:09:18;;;;;;;17.55;9.70;;;;;;;;;;2075308;28;20497;-79
2024/02/12 07:10:37;;;;;;;20.73;10.32;;;;;;;;;;2072400;28;20415;-78
2024/02/12 07:11:56;;;;;;;19.27;10.15;;;;;;;;;;2068570;28;20038;-78
2024/02/12 07:13:15;;;;;;;16.92;10.18;;;;;;;;;;2063936;28;20026;-78
2024/02/12 07:14:35;;;;;;;23.08;9.43;;;;;;;;;;2060703;28;20118;-77
2024/02/12 07:15:53;;;;;;;23.23;10.85;;;;;;;;;;2062394;28;20867;-78
2024/02/12 07:17:13;;;;;;;21.75;10.15;;;;;;;;;;2070787;28;20037;-79
2024/02/12 07:18:32;;;;;;;20.08;10.13;;;;;;;;;;2077070;28;20042;-78
2024/02/12 07:19:51;;;;;;;14.95;9.40;;;;;;;;;;2066533;28;20018;-78
2024/02/12 07:21:11;;;;;;;18.63;10.98;;;;;;;;;;2066043;28;20105;-78
2024/02/12 07:22:31;;;;;;;20.23;10.65;;;;;;;;;;2065011;28;20034;-78
2024/02/12 07:23:50;;;;;;;19.85;10.45;;;;;;;;;;2063264;28;20023;-78
2024/02/12 07:25:09;;;;;;;18.85;10.27;;;;;;;;;;2065318;28;20446;-78
2024/02/12 07:26:28;;;;;;;17.25;9.38;;;;;;;;;;2064731;28;20109;-78
2024/02/12 07:27:47;;;;;;;19.77;10.38;;;;;;;;;;2072011;28;20021;-79
2024/02/12 07:29:07;;;;;;;20.65;11.38;;;;;;;;;;2074943;28;20026;-78
2024/02/12 07:30:26;;;;;;;19.60;9.93;;;;;;;;;;2071727;28;20208;-78
2024/02/12 07:31:45;;;;;;;16.10;9.90;;;;;;;;;;2074741;28;20505;-77
2024/02/12 07:33:04;;;;;;;21.10;10.48;;;;;;;;;;2075102;28;20033;-79
2024/02/12 07:34:23;;;;;;;20.25;10.18;;;;;;;;;;2074692;28;20022;-78
2024/02/12 07:35:43;;;;;;;16.52;9.88;;;;;;;;;;2066856;28;20019;-78
2024/02/12 07:37:02;;;;;;;19.50;10.98;;;;;;;;;;2072355;28;20501;-78
2024/02/12 07:38:21;;;;;;;18.23;10.10;;;;;;;;;;2073204;28;20034;-77
2024/02/12 07:39:40;;;;;;;20.08;8.77;;;;;;;;;;2066706;28;20472;-78
2024/02/12 07:41:00;;;;;;;23.45;11.30;;;;;;;;;;2063789;28;20109;-78
2024/02/12 07:42:19;;;;;;;16.23;10.70;;;;;;;;;;2071869;28;20026;-78
2024/02/12 07:43:38;;;;;;;18.98;10.50;;;;;;;;;;2074463;28;20022;-78
2024/02/12 07:44:57;;;;;;;19.40;10.43;;;;;;;;;;2073009;28;20029;-78
2024/02/12 07:46:16;;;;;;;17.08;10.63;;;;;;;;;;2075381;28;20021;-78
2024/02/12 07:47:35;;;;;;;21.33;10.55;;;;;;;;;;2074598;28;20480;-78
2024/02/12 07:48:54;;;;;;;17.02;9.75;;;;;;;;;;2075615;28;20034;-78
2024/02/12 07:50:13;;;;;;;20.80;10.60;;;;;;;;;;2074783;28;20109;-78
2024/02/12 07:51:32;;;;;;;19.63;10.57;;;;;;;;;;2075248;28;20029;-78
2024/02/12 07:52:51;;;;;;;17.88;10.23;;;;;;;;;;2074281;28;20026;-78
2024/02/12 07:54:13;;;;;;;19.45;10.98;;;;;;;;;;2058761;28;20481;-78
2024/02/12 07:55:32;;;;;;;17.08;10.68;;;;;;;;;;2063196;28;20050;-78
2024/02/12 07:56:52;;;;;;;18.58;10.63;;;;;;;;;;2060643;28;20114;-78
2024/02/12 07:58:11;;;;;;;18.52;10.50;;;;;;;;;;2065058;28;20042;-79
2024/02/12 07:59:30;;;;;;;17.83;10.63;;;;;;;;;;2066274;28;20021;-78
2024/02/12 08:00:50;;;;;;;19.80;10.57;;;;;;;;;;2058566;28;20031;-78
2024/02/12 08:02:08;;;;;;;21.27;11.00;;;;;;;;;;2063116;28;20030;-78